createdAt,value
2018-09-06T00:00:35.663Z,0.00
2018-09-06T00:01:02.445Z,0.00
2018-09-06T00:02:02.426Z,0.00
2018-09-06T00:03:02.415Z,0.00
2018-09-06T00:05:34.752Z,0.00
2018-09-06T00:06:01.526Z,0.00
2018-09-06T00:07:34.729Z,0.00
2018-09-06T00:08:01.502Z,0.00
2018-09-06T00:09:01.483Z,0.00
2018-09-06T00:10:01.468Z,0.00
2018-09-06T00:11:34.662Z,0.00
2018-09-06T00:12:01.441Z,0.00
2018-09-06T00:13:01.438Z,0.00
2018-09-06T00:14:01.407Z,0.00
2018-09-06T00:15:01.396Z,0.00
2018-09-06T00:16:01.385Z,0.00
2018-09-06T00:17:01.367Z,0.00
2018-09-06T00:18:01.358Z,0.00
2018-09-06T00:19:34.545Z,0.00
2018-09-06T00:20:01.321Z,0.00
2018-09-06T00:21:01.312Z,0.00
2018-09-06T00:22:01.288Z,0.00
2018-09-06T00:24:05.090Z,0.00
2018-09-06T00:25:05.064Z,0.00
2018-09-06T00:26:05.050Z,0.00
2018-09-06T00:27:39.257Z,0.00
2018-09-06T00:29:34.224Z,0.00
2018-09-06T00:30:34.216Z,0.00
2018-09-06T00:31:34.191Z,0.00
2018-09-06T00:33:07.391Z,0.00
2018-09-06T00:33:34.160Z,0.00
2018-09-06T00:34:34.145Z,0.00
2018-09-06T00:35:34.129Z,0.00
2018-09-06T00:37:07.324Z,0.00
2018-09-06T00:37:34.099Z,0.00
2018-09-06T00:38:34.085Z,0.00
2018-09-06T00:39:34.219Z,0.00
2018-09-06T00:40:34.055Z,0.00
2018-09-06T00:41:34.040Z,0.00
2018-09-06T00:42:34.040Z,0.00
2018-09-06T00:44:23.542Z,0.00
2018-09-06T00:45:23.528Z,0.00
2018-09-06T00:46:23.650Z,0.00
2018-09-06T00:47:56.706Z,0.00
2018-09-06T00:48:23.479Z,0.00
2018-09-06T00:49:23.651Z,0.00
2018-09-06T00:50:23.450Z,0.00
2018-09-06T00:51:56.647Z,0.00
2018-09-06T00:52:23.419Z,0.00
2018-09-06T00:53:23.406Z,0.00
2018-09-06T00:54:23.390Z,0.00
2018-09-06T00:55:23.378Z,0.00
2018-09-06T00:56:23.363Z,0.00
2018-09-06T00:57:23.345Z,0.00
2018-09-06T00:58:23.337Z,0.00
2018-09-06T00:59:56.527Z,0.00
2018-09-06T01:00:23.304Z,0.00
2018-09-06T01:03:09.014Z,0.00
2018-09-06T01:04:08.983Z,0.00
2018-09-06T01:05:08.957Z,0.00
2018-09-06T01:06:42.155Z,0.00
2018-09-06T01:07:08.926Z,0.00
2018-09-06T01:08:08.917Z,0.00
2018-09-06T01:09:08.897Z,0.00
2018-09-06T01:10:08.883Z,0.00
2018-09-06T01:11:08.867Z,0.00
2018-09-06T01:12:08.853Z,0.00
2018-09-06T01:13:08.838Z,0.00
2018-09-06T01:14:08.825Z,0.00
2018-09-06T01:15:08.856Z,0.00
2018-09-06T01:16:08.794Z,0.00
2018-09-06T01:17:08.786Z,0.00
2018-09-06T01:18:08.763Z,0.00
2018-09-06T01:19:08.750Z,0.00
2018-09-06T01:20:08.734Z,0.00
2018-09-06T01:21:08.725Z,0.00
2018-09-06T01:23:54.404Z,0.00
2018-09-06T01:24:54.397Z,0.00
2018-09-06T01:25:54.373Z,0.00
2018-09-06T01:27:27.569Z,0.00
2018-09-06T01:27:54.354Z,0.00
2018-09-06T01:28:54.332Z,0.00
2018-09-06T01:29:54.313Z,0.00
2018-09-06T01:30:54.321Z,0.00
2018-09-06T01:31:54.285Z,0.00
2018-09-06T01:32:54.273Z,0.00
2018-09-06T01:33:54.256Z,0.00
2018-09-06T01:34:54.241Z,0.00
2018-09-06T01:35:54.233Z,0.00
2018-09-06T01:36:54.210Z,0.00
2018-09-06T01:37:54.195Z,0.00
2018-09-06T01:38:54.179Z,0.00
2018-09-06T01:40:27.377Z,0.00
2018-09-06T01:40:54.146Z,0.00
2018-09-06T01:43:38.982Z,0.00
2018-09-06T01:44:38.975Z,0.00
2018-09-06T01:45:38.953Z,0.00
2018-09-06T01:47:12.149Z,0.00
2018-09-06T01:47:38.923Z,0.00
2018-09-06T01:48:38.907Z,0.00
2018-09-06T01:49:38.894Z,0.00
2018-09-06T01:50:38.875Z,0.00
2018-09-06T01:51:38.860Z,0.00
2018-09-06T01:52:38.856Z,0.00
2018-09-06T01:53:38.835Z,0.00
2018-09-06T01:54:38.816Z,0.00
2018-09-06T01:55:38.802Z,0.00
2018-09-06T01:56:38.795Z,0.00
2018-09-06T01:57:38.774Z,0.00
2018-09-06T01:58:38.762Z,0.00
2018-09-06T02:00:11.950Z,0.00
2018-09-06T02:00:38.737Z,0.00
2018-09-06T02:03:23.457Z,0.00
2018-09-06T02:04:23.456Z,0.00
2018-09-06T02:05:56.636Z,0.00
2018-09-06T02:06:23.412Z,0.00
2018-09-06T02:07:23.398Z,0.00
2018-09-06T02:08:23.389Z,0.00
2018-09-06T02:09:23.368Z,0.00
2018-09-06T02:10:23.353Z,0.00
2018-09-06T02:11:23.344Z,0.00
2018-09-06T02:12:23.325Z,0.00
2018-09-06T02:13:23.305Z,0.00
2018-09-06T02:14:23.289Z,0.00
2018-09-06T02:15:23.279Z,0.00
2018-09-06T02:16:23.258Z,0.00
2018-09-06T02:17:23.246Z,0.00
2018-09-06T02:18:23.228Z,0.00
2018-09-06T02:19:56.423Z,0.00
2018-09-06T02:20:23.196Z,0.00
2018-09-06T02:23:08.939Z,0.00
2018-09-06T02:25:54.017Z,0.00
2018-09-06T02:28:39.100Z,0.00
2018-09-06T02:31:24.184Z,0.00
2018-09-06T02:34:09.319Z,0.00
2018-09-06T02:36:54.355Z,0.00
2018-09-06T02:39:39.336Z,0.00
2018-09-06T02:42:24.469Z,0.00
2018-09-06T02:45:09.503Z,0.00
2018-09-06T02:47:54.583Z,0.00
2018-09-06T02:50:39.679Z,0.00
2018-09-06T02:53:24.806Z,0.00
2018-09-06T02:56:09.834Z,0.00
2018-09-06T02:58:55.070Z,0.00
2018-09-06T03:01:40.006Z,0.00
2018-09-06T03:04:25.105Z,0.00
2018-09-06T03:07:10.122Z,0.00
2018-09-06T03:09:55.155Z,0.00
2018-09-06T03:12:40.289Z,0.00
2018-09-06T03:15:25.414Z,0.00
2018-09-06T03:18:10.410Z,0.00
2018-09-06T03:20:55.494Z,0.00
2018-09-06T03:23:40.572Z,0.00
2018-09-06T03:26:25.759Z,0.00
2018-09-06T03:29:10.638Z,0.00
2018-09-06T03:31:55.775Z,0.00
2018-09-06T03:34:40.805Z,0.00
2018-09-06T03:37:25.887Z,0.00
2018-09-06T03:40:10.973Z,0.00
2018-09-06T03:42:56.061Z,0.00
2018-09-06T03:45:41.090Z,0.00
2018-09-06T03:48:26.174Z,0.00
2018-09-06T03:49:59.368Z,0.00
2018-09-06T03:50:26.143Z,0.00
2018-09-06T03:51:59.345Z,0.00
2018-09-06T03:52:26.118Z,0.00
2018-09-06T03:53:26.104Z,0.00
2018-09-06T03:54:26.080Z,0.00
2018-09-06T03:55:26.067Z,0.00
2018-09-06T03:56:26.049Z,0.00
2018-09-06T03:57:26.031Z,0.00
2018-09-06T03:58:26.023Z,0.00
2018-09-06T03:59:26.005Z,0.00
2018-09-06T04:01:59.741Z,0.00
2018-09-06T04:05:07.012Z,0.00
2018-09-06T04:07:33.636Z,0.00
2018-09-06T04:08:33.621Z,0.00
2018-09-06T04:09:33.604Z,0.00
2018-09-06T04:10:33.589Z,0.00
2018-09-06T04:11:33.573Z,0.00
2018-09-06T04:12:33.556Z,0.00
2018-09-06T04:13:33.640Z,0.00
2018-09-06T04:14:33.531Z,0.00
2018-09-06T04:15:33.511Z,0.00
2018-09-06T04:16:33.495Z,0.00
2018-09-06T04:17:33.477Z,0.00
2018-09-06T04:18:33.527Z,0.00
2018-09-06T04:19:33.446Z,0.00
2018-09-06T04:20:33.437Z,0.00
2018-09-06T04:21:33.413Z,0.00
2018-09-06T04:22:33.396Z,0.00
2018-09-06T04:23:33.386Z,0.00
2018-09-06T04:24:33.367Z,0.00
2018-09-06T04:25:33.350Z,0.00
2018-09-06T04:26:33.336Z,0.00
2018-09-06T04:27:33.317Z,0.00
2018-09-06T04:28:33.314Z,0.00
2018-09-06T04:29:33.328Z,0.00
2018-09-06T04:30:33.269Z,0.00
2018-09-06T04:31:37.298Z,0.00
2018-09-06T04:32:33.238Z,0.00
2018-09-06T04:36:20.449Z,0.00
2018-09-06T04:41:01.533Z,5.63
2018-09-06T04:56:51.890Z,28.13
2018-09-06T04:57:51.870Z,33.75
2018-09-06T04:58:51.855Z,33.75
2018-09-06T04:59:51.838Z,39.38
2018-09-06T05:00:51.822Z,39.38
2018-09-06T05:01:51.810Z,45.00
2018-09-06T05:02:51.786Z,45.00
2018-09-06T05:03:51.768Z,45.00
2018-09-06T05:04:51.754Z,50.63
2018-09-06T05:05:51.751Z,50.63
2018-09-06T05:06:51.722Z,50.63
2018-09-06T05:07:51.703Z,56.25
2018-09-06T05:08:51.687Z,56.25
2018-09-06T05:09:51.671Z,61.88
2018-09-06T05:10:51.656Z,67.50
2018-09-06T05:11:51.637Z,67.50
2018-09-06T05:12:51.629Z,73.13
2018-09-06T05:13:51.620Z,73.13
2018-09-06T05:14:51.588Z,78.75
2018-09-06T05:15:51.572Z,84.38
2018-09-06T05:16:51.558Z,90.00
2018-09-06T05:18:24.753Z,90.00
2018-09-06T05:18:51.524Z,95.63
2018-09-06T05:19:51.523Z,101.25
2018-09-06T05:20:51.492Z,106.88
2018-09-06T05:21:51.540Z,106.88
2018-09-06T05:22:51.514Z,112.50
2018-09-06T05:23:51.444Z,118.13
2018-09-06T05:24:51.437Z,123.75
2018-09-06T05:26:40.696Z,135.00
2018-09-06T05:34:57.933Z,168.75
2018-09-06T05:35:57.930Z,168.75
2018-09-06T05:36:57.880Z,174.38
2018-09-06T05:37:57.865Z,174.38
2018-09-06T05:38:57.843Z,174.38
2018-09-06T05:39:57.829Z,174.38
2018-09-06T05:40:57.818Z,174.38
2018-09-06T05:41:57.802Z,174.38
2018-09-06T05:42:57.781Z,180.00
2018-09-06T05:43:57.765Z,174.38
2018-09-06T05:44:57.810Z,174.38
2018-09-06T05:45:57.735Z,157.50
2018-09-06T05:46:57.723Z,146.25
2018-09-06T05:47:57.711Z,135.00
2018-09-06T05:48:57.689Z,123.75
2018-09-06T05:49:57.672Z,118.13
2018-09-06T05:50:57.657Z,112.50
2018-09-06T05:51:57.643Z,112.50
2018-09-06T05:52:57.631Z,106.88
2018-09-06T05:53:57.617Z,101.25
2018-09-06T05:54:57.597Z,95.63
2018-09-06T05:56:30.848Z,90.00
2018-09-06T05:56:57.575Z,84.38
2018-09-06T05:57:57.584Z,78.75
2018-09-06T05:58:57.539Z,78.75
2018-09-06T05:59:57.543Z,73.13
2018-09-06T06:00:57.506Z,73.13
2018-09-06T06:01:57.496Z,78.75
2018-09-06T06:02:57.477Z,78.75
2018-09-06T06:03:57.463Z,95.63
2018-09-06T06:04:57.453Z,95.63
2018-09-06T06:05:57.431Z,101.25
2018-09-06T06:06:57.416Z,112.50
2018-09-06T06:07:57.405Z,118.13
2018-09-06T06:08:57.391Z,123.75
2018-09-06T06:09:57.377Z,129.38
2018-09-06T06:10:57.359Z,123.75
2018-09-06T06:11:57.496Z,118.13
2018-09-06T06:12:57.325Z,118.13
2018-09-06T06:13:57.315Z,112.50
2018-09-06T06:14:57.297Z,112.50
2018-09-06T06:15:57.289Z,106.88
2018-09-06T06:16:57.265Z,106.88
2018-09-06T06:17:57.252Z,106.88
2018-09-06T06:18:57.235Z,112.50
2018-09-06T06:19:57.301Z,118.13
2018-09-06T06:20:57.216Z,123.75
2018-09-06T06:21:57.208Z,135.00
2018-09-06T06:22:57.177Z,151.88
2018-09-06T06:23:57.162Z,163.13
2018-09-06T06:24:57.145Z,168.75
2018-09-06T06:25:57.176Z,185.63
2018-09-06T06:26:57.115Z,202.50
2018-09-06T06:27:57.104Z,225.00
2018-09-06T06:28:57.085Z,241.88
2018-09-06T06:29:57.070Z,247.50
2018-09-06T06:30:57.105Z,264.38
2018-09-06T06:31:57.060Z,270.00
2018-09-06T06:32:57.034Z,281.25
2018-09-06T06:33:57.021Z,286.88
2018-09-06T06:34:56.994Z,298.13
2018-09-06T06:35:56.987Z,309.38
2018-09-06T06:36:56.974Z,320.63
2018-09-06T06:37:56.955Z,337.50
2018-09-06T06:38:56.993Z,360.00
2018-09-06T06:39:57.043Z,388.13
2018-09-06T06:40:56.908Z,399.38
2018-09-06T06:41:56.896Z,410.63
2018-09-06T06:42:56.994Z,421.88
2018-09-06T06:43:56.867Z,438.75
2018-09-06T06:44:56.854Z,438.75
2018-09-06T06:45:56.835Z,450.00
2018-09-06T06:46:56.820Z,455.63
2018-09-06T06:47:56.814Z,450.00
2018-09-06T06:48:56.791Z,455.63
2018-09-06T06:49:56.777Z,472.50
2018-09-06T06:50:56.771Z,472.50
2018-09-06T06:51:56.751Z,472.50
2018-09-06T06:52:56.741Z,478.13
2018-09-06T06:53:56.736Z,478.13
2018-09-06T06:54:56.708Z,472.50
2018-09-06T06:55:56.701Z,466.88
2018-09-06T06:56:56.678Z,455.63
2018-09-06T06:57:56.674Z,450.00
2018-09-06T06:58:56.652Z,455.63
2018-09-06T06:59:56.637Z,455.63
2018-09-06T07:00:56.689Z,461.25
2018-09-06T07:01:56.611Z,466.88
2018-09-06T07:02:56.599Z,478.13
2018-09-06T07:03:56.583Z,483.75
2018-09-06T07:04:56.571Z,483.75
2018-09-06T07:05:56.555Z,483.75
2018-09-06T07:06:56.711Z,483.75
2018-09-06T07:07:56.529Z,489.38
2018-09-06T07:08:56.515Z,500.63
2018-09-06T07:09:56.519Z,511.88
2018-09-06T07:10:56.484Z,528.75
2018-09-06T07:11:56.472Z,551.25
2018-09-06T07:12:56.465Z,562.50
2018-09-06T07:13:56.504Z,579.38
2018-09-06T07:14:56.432Z,601.88
2018-09-06T07:15:56.430Z,618.75
2018-09-06T07:16:56.430Z,635.63
2018-09-06T07:17:56.397Z,658.13
2018-09-06T07:18:56.378Z,680.63
2018-09-06T07:19:56.366Z,691.88
2018-09-06T07:20:56.352Z,697.50
2018-09-06T07:21:56.339Z,708.75
2018-09-06T07:22:56.329Z,714.38
2018-09-06T07:23:56.324Z,731.25
2018-09-06T07:24:56.300Z,748.13
2018-09-06T07:25:56.291Z,720.00
2018-09-06T07:26:56.302Z,731.25
2018-09-06T07:27:56.260Z,731.25
2018-09-06T07:28:56.250Z,804.38
2018-09-06T07:29:56.241Z,725.63
2018-09-06T07:30:56.337Z,708.75
2018-09-06T07:31:56.214Z,703.13
2018-09-06T07:32:56.205Z,697.50
2018-09-06T07:33:56.319Z,714.38
2018-09-06T07:34:56.173Z,703.13
2018-09-06T07:35:56.283Z,720.00
2018-09-06T07:36:56.147Z,703.13
2018-09-06T07:37:56.138Z,697.50
2018-09-06T07:38:56.142Z,787.50
2018-09-06T07:39:56.114Z,708.75
2018-09-06T07:40:56.097Z,708.75
2018-09-06T07:41:56.085Z,725.63
2018-09-06T07:42:56.075Z,736.88
2018-09-06T07:43:56.062Z,742.50
2018-09-06T07:44:56.051Z,714.38
2018-09-06T07:45:56.038Z,669.38
2018-09-06T07:46:56.083Z,725.63
2018-09-06T07:47:56.013Z,630.00
2018-09-06T07:48:56.004Z,607.50
2018-09-06T07:49:56.034Z,596.25
2018-09-06T07:50:55.981Z,562.50
2018-09-06T07:51:55.965Z,540.00
2018-09-06T07:52:55.964Z,517.50
2018-09-06T07:53:55.952Z,506.25
2018-09-06T07:54:55.932Z,495.00
2018-09-06T07:55:55.921Z,478.13
2018-09-06T07:56:55.904Z,466.88
2018-09-06T07:57:55.900Z,450.00
2018-09-06T07:58:55.882Z,433.13
2018-09-06T07:59:55.871Z,421.88
2018-09-06T08:00:55.908Z,410.63
2018-09-06T08:01:55.849Z,399.38
2018-09-06T08:02:55.844Z,405.00
2018-09-06T08:03:55.827Z,410.63
2018-09-06T08:04:55.812Z,433.13
2018-09-06T08:05:55.809Z,421.88
2018-09-06T08:06:56.003Z,421.88
2018-09-06T08:07:55.783Z,416.25
2018-09-06T08:08:55.765Z,410.63
2018-09-06T08:09:55.756Z,405.00
2018-09-06T08:10:55.737Z,410.63
2018-09-06T08:11:55.765Z,405.00
2018-09-06T08:12:55.713Z,405.00
2018-09-06T08:13:55.710Z,399.38
2018-09-06T08:14:55.691Z,399.38
2018-09-06T08:15:55.678Z,399.38
2018-09-06T08:16:55.815Z,399.38
2018-09-06T08:17:55.660Z,393.75
2018-09-06T08:18:55.699Z,393.75
2018-09-06T08:19:55.647Z,388.13
2018-09-06T08:20:55.615Z,382.50
2018-09-06T08:21:55.608Z,376.88
2018-09-06T08:22:55.591Z,371.25
2018-09-06T08:23:55.581Z,365.63
2018-09-06T08:24:55.566Z,365.63
2018-09-06T08:25:55.553Z,360.00
2018-09-06T08:26:55.544Z,354.38
2018-09-06T08:27:55.549Z,348.75
2018-09-06T08:28:55.518Z,337.50
2018-09-06T08:29:55.514Z,331.88
2018-09-06T08:30:55.682Z,320.63
2018-09-06T08:31:55.480Z,320.63
2018-09-06T08:32:55.469Z,320.63
2018-09-06T08:33:55.456Z,315.00
2018-09-06T08:34:55.448Z,315.00
2018-09-06T08:35:55.445Z,320.63
2018-09-06T08:36:55.426Z,320.63
2018-09-06T08:37:55.413Z,320.63
2018-09-06T08:38:55.405Z,331.88
2018-09-06T08:39:55.395Z,343.13
2018-09-06T08:40:55.369Z,354.38
2018-09-06T08:41:55.365Z,376.88
2018-09-06T08:42:55.344Z,393.75
2018-09-06T08:43:55.333Z,410.63
2018-09-06T08:44:55.319Z,416.25
2018-09-06T08:45:55.307Z,427.50
2018-09-06T08:46:55.305Z,427.50
2018-09-06T08:47:55.283Z,433.13
2018-09-06T08:48:55.282Z,427.50
2018-09-06T08:49:55.256Z,421.88
2018-09-06T08:50:55.244Z,416.25
2018-09-06T08:51:55.238Z,410.63
2018-09-06T08:52:55.219Z,405.00
2018-09-06T08:53:55.207Z,393.75
2018-09-06T08:54:55.197Z,388.13
2018-09-06T08:55:55.183Z,382.50
2018-09-06T08:56:55.169Z,382.50
2018-09-06T08:57:55.157Z,376.88
2018-09-06T08:58:55.151Z,371.25
2018-09-06T08:59:55.143Z,360.00
2018-09-06T09:00:55.129Z,348.75
2018-09-06T09:01:55.108Z,337.50
2018-09-06T09:02:55.214Z,331.88
2018-09-06T09:03:55.084Z,326.25
2018-09-06T09:04:55.071Z,320.63
2018-09-06T09:05:55.105Z,320.63
2018-09-06T09:06:55.054Z,320.63
2018-09-06T09:07:55.048Z,320.63
2018-09-06T09:08:55.072Z,326.25
2018-09-06T09:09:55.019Z,331.88
2018-09-06T09:10:54.997Z,337.50
2018-09-06T09:11:54.984Z,343.13
2018-09-06T09:12:55.040Z,348.75
2018-09-06T09:13:54.967Z,360.00
2018-09-06T09:14:54.948Z,365.63
2018-09-06T09:15:54.935Z,382.50
2018-09-06T09:16:54.941Z,388.13
2018-09-06T09:17:54.910Z,399.38
2018-09-06T09:18:54.896Z,416.25
2018-09-06T09:19:54.885Z,421.88
2018-09-06T09:20:54.872Z,421.88
2018-09-06T09:21:54.881Z,416.25
2018-09-06T09:22:54.849Z,399.38
2018-09-06T09:23:54.839Z,388.13
2018-09-06T09:24:54.827Z,376.88
2018-09-06T09:25:54.821Z,360.00
2018-09-06T09:26:54.797Z,354.38
2018-09-06T09:27:54.785Z,343.13
2018-09-06T09:28:54.773Z,337.50
2018-09-06T09:29:54.910Z,343.13
2018-09-06T09:30:54.748Z,337.50
2018-09-06T09:31:54.744Z,337.50
2018-09-06T09:32:54.730Z,348.75
2018-09-06T09:33:54.716Z,337.50
2018-09-06T09:34:54.708Z,343.13
2018-09-06T09:35:54.722Z,343.13
2018-09-06T09:36:54.673Z,343.13
2018-09-06T09:37:54.660Z,348.75
2018-09-06T09:38:54.647Z,348.75
2018-09-06T09:39:54.637Z,360.00
2018-09-06T09:40:54.623Z,354.38
2018-09-06T09:41:54.619Z,348.75
2018-09-06T09:42:54.598Z,348.75
2018-09-06T09:43:54.587Z,348.75
2018-09-06T09:44:54.576Z,348.75
2018-09-06T09:47:57.324Z,343.13
2018-09-06T09:48:57.313Z,331.88
2018-09-06T09:49:57.300Z,326.25
2018-09-06T09:50:57.292Z,315.00
2018-09-06T09:51:57.277Z,309.38
2018-09-06T09:52:57.262Z,298.13
2018-09-06T09:53:57.250Z,298.13
2018-09-06T09:54:57.238Z,303.75
2018-09-06T09:55:57.233Z,320.63
2018-09-06T09:56:57.272Z,331.88
2018-09-06T09:57:57.204Z,343.13
2018-09-06T09:58:57.193Z,348.75
2018-09-06T09:59:57.174Z,354.38
2018-09-06T10:00:57.177Z,354.38
2018-09-06T10:01:57.157Z,354.38
2018-09-06T10:02:57.135Z,348.75
2018-09-06T10:03:57.127Z,343.13
2018-09-06T10:04:57.110Z,331.88
2018-09-06T10:05:57.097Z,315.00
2018-09-06T10:06:57.084Z,298.13
2018-09-06T10:07:57.078Z,275.63
2018-09-06T10:08:57.061Z,264.38
2018-09-06T10:09:57.047Z,258.75
2018-09-06T10:10:57.043Z,258.75
2018-09-06T10:11:57.022Z,258.75
2018-09-06T10:12:57.009Z,264.38
2018-09-06T10:13:56.998Z,264.38
2018-09-06T10:14:56.987Z,264.38
2018-09-06T10:15:56.979Z,270.00
2018-09-06T10:16:56.962Z,270.00
2018-09-06T10:17:56.947Z,270.00
2018-09-06T10:18:56.938Z,275.63
2018-09-06T10:19:56.929Z,281.25
2018-09-06T10:20:56.920Z,286.88
2018-09-06T10:21:56.896Z,292.50
2018-09-06T10:22:56.887Z,298.13
2018-09-06T10:23:56.870Z,303.75
2018-09-06T10:24:56.867Z,315.00
2018-09-06T10:25:56.845Z,326.25
2018-09-06T10:26:56.844Z,343.13
2018-09-06T10:27:56.820Z,354.38
2018-09-06T10:28:56.823Z,360.00
2018-09-06T10:29:56.798Z,348.75
2018-09-06T10:30:56.792Z,337.50
2018-09-06T10:31:56.769Z,320.63
2018-09-06T10:32:56.772Z,315.00
2018-09-06T10:33:56.746Z,309.38
2018-09-06T10:34:56.731Z,315.00
2018-09-06T10:35:56.719Z,315.00
2018-09-06T10:36:56.708Z,320.63
2018-09-06T10:37:56.692Z,326.25
2018-09-06T10:38:56.679Z,326.25
2018-09-06T10:39:56.747Z,326.25
2018-09-06T10:40:56.658Z,320.63
2018-09-06T10:41:56.647Z,315.00
2018-09-06T10:42:56.679Z,309.38
2018-09-06T10:43:56.617Z,303.75
2018-09-06T10:44:56.604Z,298.13
2018-09-06T10:45:56.599Z,292.50
2018-09-06T10:46:56.578Z,292.50
2018-09-06T10:47:56.681Z,286.88
2018-09-06T10:48:56.560Z,286.88
2018-09-06T10:49:56.537Z,286.88
2018-09-06T10:50:56.540Z,286.88
2018-09-06T10:51:56.517Z,286.88
2018-09-06T10:52:56.508Z,292.50
2018-09-06T10:53:56.496Z,298.13
2018-09-06T10:54:56.475Z,303.75
2018-09-06T10:55:56.462Z,309.38
2018-09-06T10:56:56.457Z,315.00
2018-09-06T10:57:56.437Z,315.00
2018-09-06T10:58:56.427Z,320.63
2018-09-06T10:59:56.421Z,315.00
2018-09-06T11:00:56.398Z,315.00
2018-09-06T11:01:56.383Z,309.38
2018-09-06T11:02:56.379Z,298.13
2018-09-06T11:03:56.358Z,292.50
2018-09-06T11:04:56.350Z,281.25
2018-09-06T11:05:56.333Z,264.38
2018-09-06T11:06:56.319Z,253.13
2018-09-06T11:07:56.381Z,241.88
2018-09-06T11:08:56.297Z,236.25
2018-09-06T11:09:56.289Z,219.38
2018-09-06T11:10:56.267Z,213.75
2018-09-06T11:11:56.255Z,208.13
2018-09-06T11:12:56.242Z,191.25
2018-09-06T11:13:56.232Z,185.63
2018-09-06T11:14:56.234Z,180.00
2018-09-06T11:15:56.206Z,174.38
2018-09-06T11:16:56.202Z,168.75
2018-09-06T11:17:56.185Z,163.13
2018-09-06T11:18:56.165Z,163.13
2018-09-06T11:19:56.150Z,157.50
2018-09-06T11:20:56.164Z,157.50
2018-09-06T11:21:56.370Z,157.50
2018-09-06T11:22:56.115Z,157.50
2018-09-06T11:23:56.308Z,157.50
2018-09-06T11:24:56.084Z,157.50
2018-09-06T11:25:56.076Z,157.50
2018-09-06T11:26:56.062Z,151.88
2018-09-06T11:27:56.092Z,151.88
2018-09-06T11:28:56.039Z,146.25
2018-09-06T11:29:56.015Z,140.63
2018-09-06T11:30:56.002Z,135.00
2018-09-06T11:31:55.989Z,135.00
2018-09-06T11:32:55.977Z,135.00
2018-09-06T11:33:55.969Z,135.00
2018-09-06T11:34:55.950Z,135.00
2018-09-06T11:35:55.943Z,135.00
2018-09-06T11:36:55.922Z,135.00
2018-09-06T11:37:55.908Z,135.00
2018-09-06T11:38:55.895Z,135.00
2018-09-06T11:39:55.892Z,135.00
2018-09-06T11:40:55.868Z,140.63
2018-09-06T11:41:55.853Z,140.63
2018-09-06T11:42:55.840Z,140.63
2018-09-06T11:43:55.826Z,140.63
2018-09-06T11:44:55.829Z,140.63
2018-09-06T11:45:55.798Z,135.00
2018-09-06T11:46:55.928Z,140.63
2018-09-06T11:47:55.787Z,140.63
2018-09-06T11:48:55.759Z,140.63
2018-09-06T11:49:55.744Z,140.63
2018-09-06T11:50:55.735Z,140.63
2018-09-06T11:51:55.724Z,140.63
2018-09-06T11:52:55.713Z,146.25
2018-09-06T11:53:55.692Z,146.25
2018-09-06T11:54:55.677Z,146.25
2018-09-06T11:55:55.714Z,146.25
2018-09-06T11:56:55.650Z,151.88
2018-09-06T11:57:55.636Z,146.25
2018-09-06T11:58:55.636Z,146.25
2018-09-06T11:59:55.621Z,146.25
2018-09-06T12:00:55.654Z,146.25
2018-09-06T12:01:55.591Z,146.25
2018-09-06T12:02:55.570Z,146.25
2018-09-06T12:03:55.553Z,140.63
2018-09-06T12:04:55.539Z,140.63
2018-09-06T12:05:55.528Z,135.00
2018-09-06T12:06:55.509Z,135.00
2018-09-06T12:07:55.499Z,135.00
2018-09-06T12:08:55.487Z,129.38
2018-09-06T12:09:55.471Z,129.38
2018-09-06T12:10:55.458Z,135.00
2018-09-06T12:11:55.444Z,135.00
2018-09-06T12:12:55.428Z,135.00
2018-09-06T12:13:55.415Z,140.63
2018-09-06T12:14:55.399Z,146.25
2018-09-06T12:15:55.386Z,146.25
2018-09-06T12:16:55.370Z,157.50
2018-09-06T12:17:55.357Z,168.75
2018-09-06T12:18:55.343Z,185.63
2018-09-06T12:19:55.360Z,196.88
2018-09-06T12:20:55.316Z,213.75
2018-09-06T12:21:55.309Z,230.63
2018-09-06T12:22:55.294Z,247.50
2018-09-06T12:23:55.275Z,258.75
2018-09-06T12:24:55.273Z,275.63
2018-09-06T12:25:55.252Z,286.88
2018-09-06T12:26:55.248Z,303.75
2018-09-06T12:27:55.222Z,309.38
2018-09-06T12:28:55.214Z,320.63
2018-09-06T12:29:55.193Z,320.63
2018-09-06T12:30:55.192Z,326.25
2018-09-06T12:31:55.171Z,331.88
2018-09-06T12:32:55.149Z,337.50
2018-09-06T12:33:55.139Z,337.50
2018-09-06T12:34:55.125Z,343.13
2018-09-06T12:35:55.243Z,348.75
2018-09-06T12:36:55.094Z,348.75
2018-09-06T12:37:55.089Z,348.75
2018-09-06T12:38:55.118Z,343.13
2018-09-06T12:39:55.061Z,337.50
2018-09-06T12:40:55.042Z,337.50
2018-09-06T12:41:55.033Z,331.88
2018-09-06T12:42:55.018Z,331.88
2018-09-06T12:43:55.006Z,331.88
2018-09-06T12:44:54.991Z,331.88
2018-09-06T12:45:54.973Z,337.50
2018-09-06T12:46:54.966Z,337.50
2018-09-06T12:47:54.946Z,337.50
2018-09-06T12:48:54.938Z,337.50
2018-09-06T12:49:54.915Z,331.88
2018-09-06T12:50:54.928Z,331.88
2018-09-06T12:51:54.890Z,320.63
2018-09-06T12:52:54.882Z,315.00
2018-09-06T12:53:54.863Z,326.25
2018-09-06T12:54:54.996Z,331.88
2018-09-06T12:55:54.834Z,343.13
2018-09-06T12:56:54.825Z,354.38
2018-09-06T12:57:54.844Z,348.75
2018-09-06T12:58:55.000Z,365.63
2018-09-06T12:59:54.798Z,365.63
2018-09-06T13:00:54.771Z,365.63
2018-09-06T13:01:54.761Z,371.25
2018-09-06T13:02:54.742Z,393.75
2018-09-06T13:03:54.730Z,399.38
2018-09-06T13:04:54.712Z,421.88
2018-09-06T13:05:54.701Z,410.63
2018-09-06T13:06:54.685Z,433.13
2018-09-06T13:07:54.679Z,466.88
2018-09-06T13:08:54.659Z,478.13
2018-09-06T13:09:54.653Z,466.88
2018-09-06T13:10:54.676Z,444.38
2018-09-06T13:11:54.622Z,450.00
2018-09-06T13:12:54.604Z,444.38
2018-09-06T13:13:54.593Z,438.75
2018-09-06T13:14:54.600Z,433.13
2018-09-06T13:15:54.572Z,421.88
2018-09-06T13:16:54.553Z,410.63
2018-09-06T13:17:54.537Z,410.63
2018-09-06T13:18:54.660Z,410.63
2018-09-06T13:19:54.511Z,416.25
2018-09-06T13:20:54.499Z,427.50
2018-09-06T13:21:54.485Z,444.38
2018-09-06T13:22:54.471Z,450.00
2018-09-06T13:23:54.459Z,450.00
2018-09-06T13:24:54.451Z,478.13
2018-09-06T13:25:54.442Z,500.63
2018-09-06T13:26:54.419Z,511.88
2018-09-06T13:27:54.412Z,511.88
2018-09-06T13:28:54.402Z,528.75
2018-09-06T13:29:54.387Z,511.88
2018-09-06T13:30:54.368Z,511.88
2018-09-06T13:31:54.354Z,511.88
2018-09-06T13:32:54.343Z,511.88
2018-09-06T13:33:54.328Z,500.63
2018-09-06T13:34:54.313Z,511.88
2018-09-06T13:35:54.318Z,534.38
2018-09-06T13:36:54.293Z,523.13
2018-09-06T13:37:54.332Z,551.25
2018-09-06T13:38:54.265Z,551.25
2018-09-06T13:39:54.252Z,545.63
2018-09-06T13:40:54.238Z,534.38
2018-09-06T13:41:54.229Z,523.13
2018-09-06T13:42:54.221Z,506.25
2018-09-06T13:43:54.212Z,500.63
2018-09-06T13:44:54.192Z,489.38
2018-09-06T13:45:54.178Z,489.38
2018-09-06T13:46:54.167Z,466.88
2018-09-06T13:47:54.155Z,478.13
2018-09-06T13:48:54.147Z,500.63
2018-09-06T13:49:54.126Z,523.13
2018-09-06T13:50:54.113Z,523.13
2018-09-06T13:51:54.099Z,523.13
2018-09-06T13:52:54.086Z,534.38
2018-09-06T13:53:54.082Z,534.38
2018-09-06T13:54:54.069Z,534.38
2018-09-06T13:55:54.048Z,534.38
2018-09-06T13:56:54.137Z,540.00
2018-09-06T13:57:54.023Z,545.63
2018-09-06T13:58:54.013Z,556.88
2018-09-06T13:59:54.015Z,573.75
2018-09-06T14:00:53.992Z,585.00
2018-09-06T14:01:53.996Z,613.13
2018-09-06T14:02:53.984Z,596.25
2018-09-06T14:03:53.958Z,596.25
2018-09-06T14:04:54.004Z,579.38
2018-09-06T14:05:54.032Z,545.63
2018-09-06T14:06:53.926Z,523.13
2018-09-06T14:07:53.901Z,506.25
2018-09-06T14:08:53.888Z,511.88
2018-09-06T14:09:53.883Z,506.25
2018-09-06T14:10:53.865Z,506.25
2018-09-06T14:11:53.851Z,511.88
2018-09-06T14:12:53.843Z,506.25
2018-09-06T14:13:53.837Z,511.88
2018-09-06T14:14:53.822Z,517.50
2018-09-06T14:15:53.813Z,517.50
2018-09-06T14:16:53.810Z,517.50
2018-09-06T14:17:53.779Z,511.88
2018-09-06T14:18:53.778Z,506.25
2018-09-06T14:19:53.782Z,500.63
2018-09-06T14:20:53.742Z,495.00
2018-09-06T14:21:53.730Z,489.38
2018-09-06T14:22:53.717Z,495.00
2018-09-06T14:23:53.727Z,489.38
2018-09-06T14:24:53.699Z,489.38
2018-09-06T14:25:53.686Z,495.00